Copper Cliff, Canada
Current Conditions -  °F | °C
As of 3:00 PM on Thursday 23 Oct 2014 (Local Time) from CYSB Reporting Station
Clear Clear  
Wind Chill: 54°   Ceiling: Unl
Heat Index: 54°   Visibility: 20mi
Dew Point: 36°   Wind: 6mph
Humidity: 51%   Direction: 170°S
Pressure: 30.13"   Gusts: NA
Location:  46.47°N, 81.07°W
Report Text: CYSB 231900Z 17005KT 090V170 20SM SKC 12/02 A3013 RMK FU N SLP214
Loading
Personal Weather Stations






























Interactive Weather Map
Tropical Storm Tracking
New forecast layout! Learn more

10-Day Weather Forecast

Advertisements
Track Severe Weather on mobile